CDT,Max TemperatureF,Mean TemperatureF,Min TemperatureF,Max Dew PointF,MeanDew PointF,Min DewpointF,Max Humidity, Mean Humidity, Min Humidity, Max Sea Level PressureIn, Mean Sea Level PressureIn, Min Sea Level PressureIn, Max VisibilityMiles, Mean VisibilityMiles, Min VisibilityMiles, Max Wind SpeedMPH, Mean Wind SpeedMPH, Max Gust SpeedMPH,PrecipitationIn, CloudCover, Events, WindDirDegrees
2013-6-1,85,78,72,74,72,70,94,80,66,30.06,30.03,29.98,10,10,10,18,9,23,0.00,4,,141
2013-6-2,87,78,69,74,71,66,94,84,62,30.01,29.96,29.89,10,8,0,14,3,,0.00,3,Fog-Rain,51
2013-6-3,86,78,71,74,72,66,94,81,63,29.96,29.92,29.89,10,10,2,13,4,,0.01,2,Fog-Rain,192
2013-6-4,86,80,75,75,74,73,94,80,68,30.00,29.96,29.92,10,10,10,16,7,,0.00,3,,176
2013-6-5,86,79,72,75,73,71,94,87,66,29.99,29.93,29.87,10,9,2,20,7,24,0.30,6,Rain-Thunderstorm,85
2013-6-6,84,78,70,72,70,68,94,82,59,29.89,29.77,29.68,10,10,10,16,8,25,0.01,5,,31
2013-6-7,85,77,69,77,72,67,94,79,68,29.93,29.86,29.76,10,10,10,18,8,24,0.00,3,,247
2013-6-8,85,81,77,76,74,72,92,80,68,30.06,29.99,29.91,10,10,10,16,9,,0.00,3,Rain,212
2013-6-9,81,76,71,77,73,69,95,89,78,30.09,30.06,30.02,10,9,1,17,9,24,0.60,5,Rain-Thunderstorm,153
2013-6-10,85,80,75,77,75,73,94,84,72,30.11,30.06,30.02,10,10,10,13,8,,0.00,5,,189
2013-6-11,86,82,78,76,75,71,90,79,65,30.12,30.08,30.04,10,10,10,13,7,,0.00,3,,255
2013-6-12,87,80,73,79,77,72,96,84,74,30.11,30.07,30.02,10,10,10,14,7,,0.00,1,,268
2013-6-13,87,82,77,79,77,75,93,81,70,30.04,29.98,29.90,10,10,9,18,9,22,0.00,1,,260
2013-6-14,89,83,77,81,78,75,93,82,66,29.94,29.88,29.85,10,10,10,16,11,20,0.00,3,,273
2013-6-15,90,82,75,75,73,70,90,74,56,30.05,30.00,29.93,10,10,10,17,7,22,0.00,1,,106
2013-6-16,88,82,76,76,75,73,94,83,61,30.10,30.06,30.03,10,10,4,13,6,,0.03,3,Rain,150
2013-6-17,87,81,75,76,74,73,94,79,63,30.06,30.03,30.00,10,10,8,14,6,17,0.00,3,,200
2013-6-18,88,84,79,75,74,71,79,72,63,30.05,30.00,29.96,10,10,10,16,12,23,0.00,3,,233
2013-6-19,88,82,76,75,73,71,86,72,62,30.05,30.01,29.95,10,10,10,15,11,21,0.00,2,,260
2013-6-20,87,80,73,74,73,72,94,74,58,30.10,30.07,30.02,10,10,9,14,4,,0.00,4,Rain-Thunderstorm,209
2013-6-21,87,80,73,75,71,68,94,78,61,30.13,30.10,30.05,10,10,10,14,6,21,0.03,2,Rain-Thunderstorm,100
2013-6-22,86,78,71,74,72,70,94,82,63,30.14,30.10,30.05,10,10,10,14,7,,0.00,2,Thunderstorm,102
2013-6-23,86,80,73,76,73,71,94,84,61,30.15,30.11,30.06,10,10,6,12,6,17,0.58,2,Rain,137
2013-6-24,88,81,74,75,74,70,94,78,58,30.20,30.14,30.11,10,10,8,12,4,,0.00,2,Thunderstorm,101
2013-6-25,90,82,74,75,73,69,94,77,50,30.17,30.11,30.07,10,10,10,12,4,,0.00,2,Thunderstorm,105
2013-6-26,88,80,73,77,74,72,95,77,62,30.11,30.06,30.02,10,10,8,10,5,,0.00,2,Rain-Thunderstorm,181
2013-6-27,88,84,81,79,76,73,84,75,64,30.05,29.98,29.93,10,10,10,15,9,,0.01,4,,250
2013-6-28,88,82,75,81,76,71,94,83,58,29.94,29.89,29.81,10,8,2,17,11,25,0.23,5,Rain-Thunderstorm,249
2013-6-29,84,76,69,79,72,68,95,89,72,29.85,29.79,29.72,10,7,1,22,11,32,2.08,6,Rain-Thunderstorm,233
2013-6-30,83,79,74,77,74,70,94,86,71,29.80,29.76,29.73,10,10,9,14,9,22,0.07,4,Rain-Thunderstorm,180